sensor_id;sensor_type;location;lat;lon;timestamp;P1;durP1;ratioP1;P2;durP2;ratioP2
21697;SDS011;11010;49.548;11.926;2022-11-20T00:00:22;23.10;;;10.37;;
21697;SDS011;11010;49.548;11.926;2022-11-20T00:02:50;24.20;;;10.37;;
21697;SDS011;11010;49.548;11.926;2022-11-20T00:05:17;22.47;;;9.50;;
21697;SDS011;11010;49.548;11.926;2022-11-20T00:07:45;22.43;;;9.80;;
21697;SDS011;11010;49.548;11.926;2022-11-20T00:10:13;22.73;;;9.43;;
21697;SDS011;11010;49.548;11.926;2022-11-20T00:12:40;21.23;;;9.53;;
21697;SDS011;11010;49.548;11.926;2022-11-20T00:15:08;24.00;;;10.70;;
21697;SDS011;11010;49.548;11.926;2022-11-20T00:17:36;24.60;;;10.33;;
21697;SDS011;11010;49.548;11.926;2022-11-20T00:20:03;24.03;;;10.40;;
21697;SDS011;11010;49.548;11.926;2022-11-20T00:22:31;23.03;;;9.80;;
21697;SDS011;11010;49.548;11.926;2022-11-20T00:24:58;25.63;;;10.47;;
21697;SDS011;11010;49.548;11.926;2022-11-20T00:27:26;22.40;;;9.60;;
21697;SDS011;11010;49.548;11.926;2022-11-20T00:29:53;24.43;;;10.30;;
21697;SDS011;11010;49.548;11.926;2022-11-20T00:32:21;20.17;;;9.30;;
21697;SDS011;11010;49.548;11.926;2022-11-20T00:34:48;24.37;;;10.87;;
21697;SDS011;11010;49.548;11.926;2022-11-20T00:37:16;24.10;;;9.77;;
21697;SDS011;11010;49.548;11.926;2022-11-20T00:39:43;23.13;;;10.57;;
21697;SDS011;11010;49.548;11.926;2022-11-20T00:42:11;24.83;;;10.40;;
21697;SDS011;11010;49.548;11.926;2022-11-20T00:44:38;24.33;;;10.00;;
21697;SDS011;11010;49.548;11.926;2022-11-20T00:47:06;22.67;;;10.27;;
21697;SDS011;11010;49.548;11.926;2022-11-20T00:49:34;24.97;;;10.37;;
21697;SDS011;11010;49.548;11.926;2022-11-20T00:52:01;24.00;;;10.60;;
21697;SDS011;11010;49.548;11.926;2022-11-20T00:54:29;27.00;;;10.73;;
21697;SDS011;11010;49.548;11.926;2022-11-20T00:56:56;25.67;;;10.90;;
21697;SDS011;11010;49.548;11.926;2022-11-20T00:59:23;24.23;;;10.83;;
21697;SDS011;11010;49.548;11.926;2022-11-20T01:01:51;25.47;;;10.93;;
21697;SDS011;11010;49.548;11.926;2022-11-20T01:04:18;23.30;;;10.20;;
21697;SDS011;11010;49.548;11.926;2022-11-20T01:06:46;28.43;;;11.87;;
21697;SDS011;11010;49.548;11.926;2022-11-20T01:09:14;25.10;;;10.97;;
21697;SDS011;11010;49.548;11.926;2022-11-20T01:11:42;25.73;;;10.83;;
21697;SDS011;11010;49.548;11.926;2022-11-20T01:14:10;25.13;;;10.53;;
21697;SDS011;11010;49.548;11.926;2022-11-20T01:16:43;25.63;;;10.57;;
21697;SDS011;11010;49.548;11.926;2022-11-20T01:19:11;24.90;;;10.07;;
21697;SDS011;11010;49.548;11.926;2022-11-20T01:21:44;23.10;;;10.03;;
21697;SDS011;11010;49.548;11.926;2022-11-20T01:24:13;24.43;;;10.83;;
21697;SDS011;11010;49.548;11.926;2022-11-20T01:26:42;23.33;;;10.00;;
21697;SDS011;11010;49.548;11.926;2022-11-20T01:29:14;26.53;;;10.73;;
21697;SDS011;11010;49.548;11.926;2022-11-20T01:31:41;27.10;;;11.20;;
21697;SDS011;11010;49.548;11.926;2022-11-20T01:34:10;23.10;;;9.87;;
21697;SDS011;11010;49.548;11.926;2022-11-20T01:36:38;24.97;;;10.63;;
21697;SDS011;11010;49.548;11.926;2022-11-20T01:39:13;25.53;;;10.90;;
21697;SDS011;11010;49.548;11.926;2022-11-20T01:41:41;26.20;;;11.17;;
21697;SDS011;11010;49.548;11.926;2022-11-20T01:47:22;25.30;;;10.57;;
21697;SDS011;11010;49.548;11.926;2022-11-20T01:50:33;24.73;;;10.70;;
21697;SDS011;11010;49.548;11.926;2022-11-20T01:55:22;25.10;;;10.27;;
21697;SDS011;11010;49.548;11.926;2022-11-20T01:57:51;26.27;;;10.93;;
21697;SDS011;11010;49.548;11.926;2022-11-20T02:00:19;23.33;;;10.27;;
21697;SDS011;11010;49.548;11.926;2022-11-20T02:08:32;23.93;;;10.53;;
21697;SDS011;11010;49.548;11.926;2022-11-20T02:11:01;25.57;;;10.67;;
21697;SDS011;11010;49.548;11.926;2022-11-20T02:13:28;21.97;;;10.03;;
21697;SDS011;11010;49.548;11.926;2022-11-20T02:18:41;25.77;;;10.50;;
21697;SDS011;11010;49.548;11.926;2022-11-20T02:26:33;26.10;;;10.93;;
21697;SDS011;11010;49.548;11.926;2022-11-20T02:29:02;24.40;;;10.07;;
21697;SDS011;11010;49.548;11.926;2022-11-20T02:31:34;25.73;;;10.53;;
21697;SDS011;11010;49.548;11.926;2022-11-20T02:34:02;24.30;;;10.00;;
21697;SDS011;11010;49.548;11.926;2022-11-20T02:36:29;22.70;;;10.27;;
21697;SDS011;11010;49.548;11.926;2022-11-20T02:38:58;21.73;;;9.43;;
21697;SDS011;11010;49.548;11.926;2022-11-20T02:41:35;24.30;;;10.13;;
21697;SDS011;11010;49.548;11.926;2022-11-20T02:44:03;26.10;;;10.27;;
21697;SDS011;11010;49.548;11.926;2022-11-20T02:49:25;25.40;;;10.17;;
21697;SDS011;11010;49.548;11.926;2022-11-20T02:51:53;24.03;;;10.53;;
21697;SDS011;11010;49.548;11.926;2022-11-20T02:54:21;24.20;;;10.47;;
21697;SDS011;11010;49.548;11.926;2022-11-20T02:56:49;24.67;;;10.30;;
21697;SDS011;11010;49.548;11.926;2022-11-20T02:59:16;24.87;;;10.77;;
21697;SDS011;11010;49.548;11.926;2022-11-20T03:01:45;25.13;;;10.17;;
21697;SDS011;11010;49.548;11.926;2022-11-20T03:04:13;23.73;;;9.87;;
21697;SDS011;11010;49.548;11.926;2022-11-20T03:06:41;25.30;;;10.00;;
21697;SDS011;11010;49.548;11.926;2022-11-20T03:09:08;25.50;;;10.17;;
21697;SDS011;11010;49.548;11.926;2022-11-20T03:11:36;24.53;;;10.20;;
21697;SDS011;11010;49.548;11.926;2022-11-20T03:14:04;23.13;;;10.17;;
21697;SDS011;11010;49.548;11.926;2022-11-20T03:16:32;24.43;;;9.97;;
21697;SDS011;11010;49.548;11.926;2022-11-20T03:19:00;26.47;;;10.53;;
21697;SDS011;11010;49.548;11.926;2022-11-20T03:21:28;22.90;;;9.83;;
21697;SDS011;11010;49.548;11.926;2022-11-20T03:23:56;24.10;;;10.53;;
21697;SDS011;11010;49.548;11.926;2022-11-20T03:26:24;24.87;;;10.20;;
21697;SDS011;11010;49.548;11.926;2022-11-20T03:29:02;24.97;;;10.40;;
21697;SDS011;11010;49.548;11.926;2022-11-20T03:31:32;23.20;;;10.03;;
21697;SDS011;11010;49.548;11.926;2022-11-20T03:34:00;24.87;;;10.67;;
21697;SDS011;11010;49.548;11.926;2022-11-20T03:36:28;24.60;;;10.67;;
21697;SDS011;11010;49.548;11.926;2022-11-20T03:38:56;27.13;;;11.07;;
21697;SDS011;11010;49.548;11.926;2022-11-20T03:41:25;23.43;;;10.67;;
21697;SDS011;11010;49.548;11.926;2022-11-20T03:43:55;26.43;;;10.83;;
21697;SDS011;11010;49.548;11.926;2022-11-20T03:46:23;25.97;;;10.83;;
21697;SDS011;11010;49.548;11.926;2022-11-20T03:48:51;23.57;;;10.37;;
21697;SDS011;11010;49.548;11.926;2022-11-20T03:51:20;23.87;;;10.17;;
21697;SDS011;11010;49.548;11.926;2022-11-20T03:53:50;24.17;;;10.07;;
21697;SDS011;11010;49.548;11.926;2022-11-20T03:56:20;26.10;;;11.07;;
21697;SDS011;11010;49.548;11.926;2022-11-20T03:58:48;27.53;;;11.47;;
21697;SDS011;11010;49.548;11.926;2022-11-20T04:01:17;29.77;;;11.10;;
21697;SDS011;11010;49.548;11.926;2022-11-20T04:03:45;25.87;;;11.03;;
21697;SDS011;11010;49.548;11.926;2022-11-20T04:06:17;26.07;;;11.20;;
21697;SDS011;11010;49.548;11.926;2022-11-20T04:08:45;26.30;;;11.00;;
21697;SDS011;11010;49.548;11.926;2022-11-20T04:11:26;27.20;;;11.43;;
21697;SDS011;11010;49.548;11.926;2022-11-20T04:13:55;26.77;;;10.70;;
21697;SDS011;11010;49.548;11.926;2022-11-20T04:16:24;25.93;;;10.67;;
21697;SDS011;11010;49.548;11.926;2022-11-20T04:18:54;26.57;;;11.07;;
21697;SDS011;11010;49.548;11.926;2022-11-20T04:21:22;23.87;;;11.00;;
21697;SDS011;11010;49.548;11.926;2022-11-20T04:23:51;25.80;;;11.13;;
21697;SDS011;11010;49.548;11.926;2022-11-20T04:26:20;25.77;;;10.57;;
21697;SDS011;11010;49.548;11.926;2022-11-20T04:28:48;26.00;;;10.87;;
21697;SDS011;11010;49.548;11.926;2022-11-20T04:31:17;24.73;;;10.37;;
21697;SDS011;11010;49.548;11.926;2022-11-20T04:33:45;25.73;;;11.10;;
21697;SDS011;11010;49.548;11.926;2022-11-20T04:36:14;27.57;;;11.60;;
21697;SDS011;11010;49.548;11.926;2022-11-20T04:38:42;25.00;;;10.83;;
21697;SDS011;11010;49.548;11.926;2022-11-20T04:41:20;24.70;;;10.93;;
21697;SDS011;11010;49.548;11.926;2022-11-20T04:57:02;25.07;;;10.70;;
21697;SDS011;11010;49.548;11.926;2022-11-20T04:59:29;28.10;;;11.23;;
21697;SDS011;11010;49.548;11.926;2022-11-20T05:01:57;23.80;;;10.47;;
21697;SDS011;11010;49.548;11.926;2022-11-20T05:04:25;25.77;;;10.97;;
21697;SDS011;11010;49.548;11.926;2022-11-20T05:06:52;26.43;;;11.47;;
21697;SDS011;11010;49.548;11.926;2022-11-20T05:09:20;25.03;;;10.40;;
21697;SDS011;11010;49.548;11.926;2022-11-20T05:11:48;28.27;;;11.40;;
21697;SDS011;11010;49.548;11.926;2022-11-20T05:14:17;27.70;;;11.97;;
21697;SDS011;11010;49.548;11.926;2022-11-20T05:16:44;24.13;;;10.97;;
21697;SDS011;11010;49.548;11.926;2022-11-20T05:19:12;25.77;;;10.87;;
21697;SDS011;11010;49.548;11.926;2022-11-20T05:21:39;25.13;;;11.63;;
21697;SDS011;11010;49.548;11.926;2022-11-20T05:24:07;25.77;;;10.57;;
21697;SDS011;11010;49.548;11.926;2022-11-20T05:26:34;25.67;;;11.07;;
21697;SDS011;11010;49.548;11.926;2022-11-20T05:29:02;27.70;;;12.20;;
21697;SDS011;11010;49.548;11.926;2022-11-20T05:31:29;29.87;;;12.63;;
21697;SDS011;11010;49.548;11.926;2022-11-20T05:33:56;28.10;;;11.67;;
21697;SDS011;11010;49.548;11.926;2022-11-20T05:36:24;30.37;;;12.73;;
21697;SDS011;11010;49.548;11.926;2022-11-20T05:38:52;27.50;;;11.30;;
21697;SDS011;11010;49.548;11.926;2022-11-20T05:41:26;25.83;;;10.67;;
21697;SDS011;11010;49.548;11.926;2022-11-20T05:43:55;26.60;;;11.30;;
21697;SDS011;11010;49.548;11.926;2022-11-20T05:46:23;27.90;;;11.27;;
21697;SDS011;11010;49.548;11.926;2022-11-20T05:48:55;26.80;;;10.57;;
21697;SDS011;11010;49.548;11.926;2022-11-20T05:51:22;25.10;;;11.03;;
21697;SDS011;11010;49.548;11.926;2022-11-20T05:53:50;28.03;;;11.47;;
21697;SDS011;11010;49.548;11.926;2022-11-20T05:56:18;26.57;;;11.03;;
21697;SDS011;11010;49.548;11.926;2022-11-20T05:58:46;26.50;;;11.07;;
21697;SDS011;11010;49.548;11.926;2022-11-20T06:01:15;27.90;;;11.53;;
21697;SDS011;11010;49.548;11.926;2022-11-20T06:03:43;25.37;;;10.87;;
21697;SDS011;11010;49.548;11.926;2022-11-20T06:06:14;25.17;;;11.03;;
21697;SDS011;11010;49.548;11.926;2022-11-20T06:08:42;29.10;;;12.37;;
21697;SDS011;11010;49.548;11.926;2022-11-20T06:11:10;26.77;;;11.50;;
21697;SDS011;11010;49.548;11.926;2022-11-20T06:13:38;27.67;;;11.90;;
21697;SDS011;11010;49.548;11.926;2022-11-20T06:16:08;25.63;;;11.20;;
21697;SDS011;11010;49.548;11.926;2022-11-20T06:18:35;26.83;;;11.17;;
21697;SDS011;11010;49.548;11.926;2022-11-20T06:21:07;28.40;;;12.10;;
21697;SDS011;11010;49.548;11.926;2022-11-20T06:23:35;30.30;;;12.70;;
21697;SDS011;11010;49.548;11.926;2022-11-20T06:26:04;25.90;;;10.93;;
21697;SDS011;11010;49.548;11.926;2022-11-20T06:28:32;26.90;;;11.60;;
21697;SDS011;11010;49.548;11.926;2022-11-20T06:30:59;28.57;;;11.53;;
21697;SDS011;11010;49.548;11.926;2022-11-20T06:33:27;28.50;;;12.33;;
21697;SDS011;11010;49.548;11.926;2022-11-20T06:35:58;26.73;;;11.53;;
21697;SDS011;11010;49.548;11.926;2022-11-20T06:38:34;26.33;;;12.07;;
21697;SDS011;11010;49.548;11.926;2022-11-20T06:41:02;27.37;;;12.30;;
21697;SDS011;11010;49.548;11.926;2022-11-20T06:43:30;27.83;;;12.33;;
21697;SDS011;11010;49.548;11.926;2022-11-20T06:45:58;28.13;;;12.40;;
21697;SDS011;11010;49.548;11.926;2022-11-20T06:48:27;28.90;;;11.77;;
21697;SDS011;11010;49.548;11.926;2022-11-20T06:50:55;26.60;;;11.93;;
21697;SDS011;11010;49.548;11.926;2022-11-20T06:53:23;28.00;;;12.23;;
21697;SDS011;11010;49.548;11.926;2022-11-20T06:55:50;26.73;;;11.37;;
21697;SDS011;11010;49.548;11.926;2022-11-20T06:58:18;26.23;;;11.13;;
21697;SDS011;11010;49.548;11.926;2022-11-20T07:00:46;26.77;;;11.57;;
21697;SDS011;11010;49.548;11.926;2022-11-20T07:03:14;25.63;;;10.97;;
21697;SDS011;11010;49.548;11.926;2022-11-20T07:05:41;26.10;;;10.83;;
21697;SDS011;11010;49.548;11.926;2022-11-20T07:08:09;27.37;;;11.67;;
21697;SDS011;11010;49.548;11.926;2022-11-20T07:10:36;29.50;;;11.97;;
21697;SDS011;11010;49.548;11.926;2022-11-20T07:13:04;27.13;;;12.00;;
21697;SDS011;11010;49.548;11.926;2022-11-20T07:15:33;27.27;;;11.43;;
21697;SDS011;11010;49.548;11.926;2022-11-20T07:18:00;27.83;;;11.70;;
21697;SDS011;11010;49.548;11.926;2022-11-20T07:20:28;28.10;;;11.63;;
21697;SDS011;11010;49.548;11.926;2022-11-20T07:22:56;25.67;;;10.93;;
21697;SDS011;11010;49.548;11.926;2022-11-20T07:25:24;28.10;;;11.97;;
21697;SDS011;11010;49.548;11.926;2022-11-20T07:27:52;24.37;;;11.13;;
21697;SDS011;11010;49.548;11.926;2022-11-20T07:30:20;26.77;;;11.03;;
21697;SDS011;11010;49.548;11.926;2022-11-20T07:32:50;26.70;;;11.93;;
21697;SDS011;11010;49.548;11.926;2022-11-20T07:35:18;27.30;;;11.40;;
21697;SDS011;11010;49.548;11.926;2022-11-20T07:37:45;27.17;;;12.13;;
21697;SDS011;11010;49.548;11.926;2022-11-20T07:40:13;27.93;;;12.20;;
21697;SDS011;11010;49.548;11.926;2022-11-20T07:42:47;27.63;;;11.63;;
21697;SDS011;11010;49.548;11.926;2022-11-20T07:45:16;27.23;;;11.80;;
21697;SDS011;11010;49.548;11.926;2022-11-20T07:47:43;27.87;;;12.20;;
21697;SDS011;11010;49.548;11.926;2022-11-20T07:50:11;24.40;;;11.27;;
21697;SDS011;11010;49.548;11.926;2022-11-20T07:52:39;25.50;;;11.60;;
21697;SDS011;11010;49.548;11.926;2022-11-20T07:55:07;25.17;;;11.80;;
21697;SDS011;11010;49.548;11.926;2022-11-20T07:57:35;27.10;;;11.57;;
21697;SDS011;11010;49.548;11.926;2022-11-20T08:00:03;27.13;;;11.60;;
21697;SDS011;11010;49.548;11.926;2022-11-20T08:02:40;27.87;;;11.87;;
21697;SDS011;11010;49.548;11.926;2022-11-20T08:05:08;27.83;;;11.70;;
21697;SDS011;11010;49.548;11.926;2022-11-20T08:07:40;28.67;;;12.03;;
21697;SDS011;11010;49.548;11.926;2022-11-20T08:10:09;28.00;;;12.73;;
21697;SDS011;11010;49.548;11.926;2022-11-20T08:12:43;28.07;;;11.50;;
21697;SDS011;11010;49.548;11.926;2022-11-20T08:15:29;26.67;;;11.33;;
21697;SDS011;11010;49.548;11.926;2022-11-20T08:18:01;27.87;;;11.67;;
21697;SDS011;11010;49.548;11.926;2022-11-20T08:20:49;26.90;;;11.27;;
21697;SDS011;11010;49.548;11.926;2022-11-20T08:23:16;27.47;;;11.17;;
21697;SDS011;11010;49.548;11.926;2022-11-20T08:25:48;26.17;;;11.57;;
21697;SDS011;11010;49.548;11.926;2022-11-20T08:28:16;27.97;;;11.87;;
21697;SDS011;11010;49.548;11.926;2022-11-20T08:30:47;25.90;;;11.00;;
21697;SDS011;11010;49.548;11.926;2022-11-20T08:33:15;25.07;;;11.03;;
21697;SDS011;11010;49.548;11.926;2022-11-20T08:35:43;26.40;;;11.33;;
21697;SDS011;11010;49.548;11.926;2022-11-20T08:38:11;29.13;;;12.17;;
21697;SDS011;11010;49.548;11.926;2022-11-20T08:40:39;26.17;;;11.40;;
21697;SDS011;11010;49.548;11.926;2022-11-20T08:43:07;26.60;;;11.47;;
21697;SDS011;11010;49.548;11.926;2022-11-20T08:45:34;26.73;;;12.27;;
21697;SDS011;11010;49.548;11.926;2022-11-20T08:48:02;27.00;;;11.73;;
21697;SDS011;11010;49.548;11.926;2022-11-20T08:50:30;27.80;;;11.67;;
21697;SDS011;11010;49.548;11.926;2022-11-20T08:53:02;26.30;;;12.37;;
21697;SDS011;11010;49.548;11.926;2022-11-20T08:55:30;30.93;;;11.80;;
21697;SDS011;11010;49.548;11.926;2022-11-20T08:57:58;25.63;;;11.47;;
21697;SDS011;11010;49.548;11.926;2022-11-20T09:00:30;26.47;;;11.10;;
21697;SDS011;11010;49.548;11.926;2022-11-20T09:02:59;25.50;;;11.40;;
21697;SDS011;11010;49.548;11.926;2022-11-20T09:05:27;27.87;;;11.53;;
21697;SDS011;11010;49.548;11.926;2022-11-20T09:07:58;26.00;;;11.40;;
21697;SDS011;11010;49.548;11.926;2022-11-20T09:10:26;23.67;;;10.20;;
21697;SDS011;11010;49.548;11.926;2022-11-20T09:12:54;25.77;;;10.03;;
21697;SDS011;11010;49.548;11.926;2022-11-20T09:15:22;25.27;;;10.40;;
21697;SDS011;11010;49.548;11.926;2022-11-20T09:20:20;24.87;;;11.07;;
21697;SDS011;11010;49.548;11.926;2022-11-20T09:22:48;23.60;;;9.30;;
21697;SDS011;11010;49.548;11.926;2022-11-20T09:25:15;24.37;;;10.17;;
21697;SDS011;11010;49.548;11.926;2022-11-20T09:27:43;22.77;;;10.20;;
21697;SDS011;11010;49.548;11.926;2022-11-20T09:30:13;24.80;;;10.70;;
21697;SDS011;11010;49.548;11.926;2022-11-20T09:32:40;25.43;;;11.00;;
21697;SDS011;11010;49.548;11.926;2022-11-20T09:35:08;26.30;;;11.10;;
21697;SDS011;11010;49.548;11.926;2022-11-20T09:37:37;22.97;;;10.27;;
21697;SDS011;11010;49.548;11.926;2022-11-20T09:40:05;23.20;;;9.67;;
21697;SDS011;11010;49.548;11.926;2022-11-20T09:42:47;20.33;;;9.07;;
21697;SDS011;11010;49.548;11.926;2022-11-20T09:45:37;23.20;;;9.87;;
21697;SDS011;11010;49.548;11.926;2022-11-20T09:48:20;21.27;;;8.73;;
21697;SDS011;11010;49.548;11.926;2022-11-20T09:56:02;22.00;;;9.73;;
21697;SDS011;11010;49.548;11.926;2022-11-20T09:58:35;21.90;;;9.00;;
21697;SDS011;11010;49.548;11.926;2022-11-20T10:01:12;22.87;;;9.63;;
21697;SDS011;11010;49.548;11.926;2022-11-20T10:03:45;22.87;;;9.83;;
21697;SDS011;11010;49.548;11.926;2022-11-20T10:06:16;23.97;;;9.73;;
21697;SDS011;11010;49.548;11.926;2022-11-20T10:08:49;23.77;;;10.97;;
21697;SDS011;11010;49.548;11.926;2022-11-20T10:12:02;27.03;;;11.97;;
21697;SDS011;11010;49.548;11.926;2022-11-20T10:21:52;24.00;;;8.97;;
21697;SDS011;11010;49.548;11.926;2022-11-20T10:29:34;21.77;;;8.67;;
21697;SDS011;11010;49.548;11.926;2022-11-20T10:32:11;19.60;;;8.17;;
21697;SDS011;11010;49.548;11.926;2022-11-20T10:34:51;19.07;;;7.30;;
21697;SDS011;11010;49.548;11.926;2022-11-20T10:37:22;18.27;;;7.30;;
21697;SDS011;11010;49.548;11.926;2022-11-20T10:42:31;16.10;;;6.70;;
21697;SDS011;11010;49.548;11.926;2022-11-20T10:45:11;17.47;;;7.20;;
21697;SDS011;11010;49.548;11.926;2022-11-20T10:47:43;15.73;;;6.33;;
21697;SDS011;11010;49.548;11.926;2022-11-20T10:50:11;15.97;;;6.83;;
21697;SDS011;11010;49.548;11.926;2022-11-20T10:55:30;17.30;;;6.93;;
21697;SDS011;11010;49.548;11.926;2022-11-20T10:58:21;18.80;;;7.20;;
21697;SDS011;11010;49.548;11.926;2022-11-20T11:00:50;15.03;;;6.40;;
21697;SDS011;11010;49.548;11.926;2022-11-20T11:03:25;15.30;;;6.50;;
21697;SDS011;11010;49.548;11.926;2022-11-20T11:08:29;15.60;;;6.27;;
21697;SDS011;11010;49.548;11.926;2022-11-20T11:11:00;17.03;;;6.63;;
21697;SDS011;11010;49.548;11.926;2022-11-20T11:13:29;14.53;;;5.87;;
21697;SDS011;11010;49.548;11.926;2022-11-20T11:15:57;16.10;;;6.17;;
21697;SDS011;11010;49.548;11.926;2022-11-20T11:18:28;15.57;;;5.97;;
21697;SDS011;11010;49.548;11.926;2022-11-20T11:20:56;15.10;;;5.77;;
21697;SDS011;11010;49.548;11.926;2022-11-20T11:23:34;17.23;;;6.20;;
21697;SDS011;11010;49.548;11.926;2022-11-20T11:26:04;16.77;;;6.20;;
21697;SDS011;11010;49.548;11.926;2022-11-20T11:28:32;14.40;;;5.57;;
21697;SDS011;11010;49.548;11.926;2022-11-20T11:30:59;14.77;;;6.00;;
21697;SDS011;11010;49.548;11.926;2022-11-20T11:33:28;14.83;;;5.70;;
21697;SDS011;11010;49.548;11.926;2022-11-20T11:36:16;15.23;;;6.10;;
21697;SDS011;11010;49.548;11.926;2022-11-20T11:38:44;16.60;;;6.30;;
21697;SDS011;11010;49.548;11.926;2022-11-20T11:41:54;14.67;;;6.00;;
21697;SDS011;11010;49.548;11.926;2022-11-20T11:47:11;15.00;;;6.17;;
21697;SDS011;11010;49.548;11.926;2022-11-20T11:49:39;13.00;;;5.40;;
21697;SDS011;11010;49.548;11.926;2022-11-20T11:54:41;14.43;;;5.83;;
21697;SDS011;11010;49.548;11.926;2022-11-20T11:57:12;13.10;;;5.30;;
21697;SDS011;11010;49.548;11.926;2022-11-20T12:05:05;13.63;;;5.13;;
21697;SDS011;11010;49.548;11.926;2022-11-20T12:07:40;12.83;;;4.93;;
21697;SDS011;11010;49.548;11.926;2022-11-20T12:12:59;12.50;;;4.90;;
21697;SDS011;11010;49.548;11.926;2022-11-20T12:15:29;12.07;;;4.53;;
21697;SDS011;11010;49.548;11.926;2022-11-20T12:17:58;10.17;;;3.67;;
21697;SDS011;11010;49.548;11.926;2022-11-20T12:20:29;10.50;;;3.90;;
21697;SDS011;11010;49.548;11.926;2022-11-20T12:23:09;10.70;;;3.60;;
21697;SDS011;11010;49.548;11.926;2022-11-20T12:25:41;11.57;;;3.67;;
21697;SDS011;11010;49.548;11.926;2022-11-20T12:31:08;9.30;;;3.50;;
21697;SDS011;11010;49.548;11.926;2022-11-20T12:49:41;10.57;;;4.07;;
21697;SDS011;11010;49.548;11.926;2022-11-20T13:04:55;9.80;;;3.17;;
21697;SDS011;11010;49.548;11.926;2022-11-20T13:07:28;9.67;;;2.60;;
21697;SDS011;11010;49.548;11.926;2022-11-20T13:09:57;8.77;;;2.70;;
21697;SDS011;11010;49.548;11.926;2022-11-20T13:12:31;7.83;;;2.40;;
21697;SDS011;11010;49.548;11.926;2022-11-20T13:17:33;7.97;;;2.70;;
21697;SDS011;11010;49.548;11.926;2022-11-20T13:20:02;8.77;;;2.70;;
21697;SDS011;11010;49.548;11.926;2022-11-20T13:22:42;7.87;;;2.57;;
21697;SDS011;11010;49.548;11.926;2022-11-20T13:25:30;8.17;;;2.70;;
21697;SDS011;11010;49.548;11.926;2022-11-20T13:27:59;6.97;;;2.10;;
21697;SDS011;11010;49.548;11.926;2022-11-20T13:30:28;6.73;;;2.03;;
21697;SDS011;11010;49.548;11.926;2022-11-20T13:33:08;6.60;;;2.03;;
21697;SDS011;11010;49.548;11.926;2022-11-20T13:35:42;7.07;;;1.80;;
21697;SDS011;11010;49.548;11.926;2022-11-20T13:38:11;6.60;;;1.67;;
21697;SDS011;11010;49.548;11.926;2022-11-20T13:41:00;7.63;;;2.10;;
21697;SDS011;11010;49.548;11.926;2022-11-20T13:43:47;7.67;;;2.20;;
21697;SDS011;11010;49.548;11.926;2022-11-20T13:46:15;7.90;;;2.47;;
21697;SDS011;11010;49.548;11.926;2022-11-20T13:48:43;7.07;;;2.00;;
21697;SDS011;11010;49.548;11.926;2022-11-20T13:54:02;6.97;;;2.00;;
21697;SDS011;11010;49.548;11.926;2022-11-20T13:59:09;7.50;;;2.40;;
21697;SDS011;11010;49.548;11.926;2022-11-20T14:01:41;7.33;;;2.43;;
21697;SDS011;11010;49.548;11.926;2022-11-20T14:04:19;9.67;;;2.90;;
21697;SDS011;11010;49.548;11.926;2022-11-20T14:06:49;9.13;;;2.50;;
21697;SDS011;11010;49.548;11.926;2022-11-20T14:09:26;8.73;;;2.50;;
21697;SDS011;11010;49.548;11.926;2022-11-20T14:11:54;7.63;;;2.37;;
21697;SDS011;11010;49.548;11.926;2022-11-20T14:14:25;8.90;;;2.67;;
21697;SDS011;11010;49.548;11.926;2022-11-20T14:17:07;8.10;;;2.30;;
21697;SDS011;11010;49.548;11.926;2022-11-20T14:19:35;7.93;;;2.43;;
21697;SDS011;11010;49.548;11.926;2022-11-20T14:24:37;8.13;;;2.70;;
21697;SDS011;11010;49.548;11.926;2022-11-20T14:27:09;8.30;;;2.40;;
21697;SDS011;11010;49.548;11.926;2022-11-20T14:29:38;7.47;;;2.50;;
21697;SDS011;11010;49.548;11.926;2022-11-20T14:32:08;7.17;;;1.90;;
21697;SDS011;11010;49.548;11.926;2022-11-20T14:34:37;8.43;;;2.40;;
21697;SDS011;11010;49.548;11.926;2022-11-20T14:37:05;8.23;;;2.53;;
21697;SDS011;11010;49.548;11.926;2022-11-20T14:39:41;7.93;;;2.50;;
21697;SDS011;11010;49.548;11.926;2022-11-20T14:42:20;8.07;;;2.53;;
21697;SDS011;11010;49.548;11.926;2022-11-20T14:44:48;8.40;;;2.50;;
21697;SDS011;11010;49.548;11.926;2022-11-20T14:47:19;8.40;;;2.40;;
21697;SDS011;11010;49.548;11.926;2022-11-20T14:49:48;7.80;;;2.50;;
21697;SDS011;11010;49.548;11.926;2022-11-20T14:52:20;8.13;;;2.70;;
21697;SDS011;11010;49.548;11.926;2022-11-20T15:00:06;8.13;;;2.40;;
21697;SDS011;11010;49.548;11.926;2022-11-20T15:02:34;9.20;;;2.60;;
21697;SDS011;11010;49.548;11.926;2022-11-20T15:05:05;8.17;;;2.30;;
21697;SDS011;11010;49.548;11.926;2022-11-20T15:07:34;8.73;;;2.80;;
21697;SDS011;11010;49.548;11.926;2022-11-20T15:10:06;8.40;;;2.90;;
21697;SDS011;11010;49.548;11.926;2022-11-20T15:12:35;9.03;;;2.90;;
21697;SDS011;11010;49.548;11.926;2022-11-20T15:15:05;7.87;;;2.70;;
21697;SDS011;11010;49.548;11.926;2022-11-20T15:17:40;8.47;;;3.00;;
21697;SDS011;11010;49.548;11.926;2022-11-20T15:20:17;8.97;;;3.00;;
21697;SDS011;11010;49.548;11.926;2022-11-20T15:22:45;8.63;;;2.63;;
21697;SDS011;11010;49.548;11.926;2022-11-20T15:25:13;8.33;;;2.93;;
21697;SDS011;11010;49.548;11.926;2022-11-20T15:27:41;8.10;;;2.70;;
21697;SDS011;11010;49.548;11.926;2022-11-20T15:30:19;8.73;;;3.00;;
21697;SDS011;11010;49.548;11.926;2022-11-20T15:32:47;8.30;;;2.83;;
21697;SDS011;11010;49.548;11.926;2022-11-20T15:35:14;9.00;;;2.90;;
21697;SDS011;11010;49.548;11.926;2022-11-20T15:37:42;8.27;;;2.93;;
21697;SDS011;11010;49.548;11.926;2022-11-20T15:40:10;8.60;;;3.00;;
21697;SDS011;11010;49.548;11.926;2022-11-20T15:42:37;19.47;;;6.50;;
21697;SDS011;11010;49.548;11.926;2022-11-20T15:45:25;8.90;;;2.90;;
21697;SDS011;11010;49.548;11.926;2022-11-20T15:47:53;10.60;;;3.07;;
21697;SDS011;11010;49.548;11.926;2022-11-20T15:50:20;9.47;;;3.27;;
21697;SDS011;11010;49.548;11.926;2022-11-20T15:52:49;11.13;;;5.17;;
21697;SDS011;11010;49.548;11.926;2022-11-20T15:55:17;9.17;;;3.20;;
21697;SDS011;11010;49.548;11.926;2022-11-20T15:57:44;10.90;;;4.60;;
21697;SDS011;11010;49.548;11.926;2022-11-20T16:00:12;10.37;;;3.43;;
21697;SDS011;11010;49.548;11.926;2022-11-20T16:02:46;10.60;;;4.53;;
21697;SDS011;11010;49.548;11.926;2022-11-20T16:05:13;9.87;;;3.87;;
21697;SDS011;11010;49.548;11.926;2022-11-20T16:07:43;10.30;;;3.50;;
21697;SDS011;11010;49.548;11.926;2022-11-20T16:10:11;9.13;;;3.20;;
21697;SDS011;11010;49.548;11.926;2022-11-20T16:12:38;9.67;;;3.27;;
21697;SDS011;11010;49.548;11.926;2022-11-20T16:15:24;8.80;;;3.30;;
21697;SDS011;11010;49.548;11.926;2022-11-20T16:18:11;8.47;;;2.90;;
21697;SDS011;11010;49.548;11.926;2022-11-20T16:20:39;8.47;;;2.90;;
21697;SDS011;11010;49.548;11.926;2022-11-20T16:23:06;8.07;;;3.13;;
21697;SDS011;11010;49.548;11.926;2022-11-20T16:25:34;9.37;;;3.07;;
21697;SDS011;11010;49.548;11.926;2022-11-20T16:28:01;8.87;;;3.07;;
21697;SDS011;11010;49.548;11.926;2022-11-20T16:30:30;9.13;;;3.23;;
21697;SDS011;11010;49.548;11.926;2022-11-20T16:32:58;8.83;;;2.97;;
21697;SDS011;11010;49.548;11.926;2022-11-20T16:35:26;9.27;;;3.30;;
21697;SDS011;11010;49.548;11.926;2022-11-20T16:37:57;8.67;;;3.07;;